MHROMNBL

Guest
Details From MHRO - Roatan
To MNBL - BLUEFIELDS
Flight Number -
Tags decoded
Created
Modified
Stats Distance 314 nm / 581 km
Max Altitude 0 ft / 0 m
Waypoints 4
Social Downloads 1
Likes 0
Share VATSIM

Download

Looking for another format? Having issues loading an existing format? Contact us
Advertisement - Login to hide

Notes

Requested: MHRO 15N085W 13N084W MNBL

Route

MHRO 15N085W 13N084W MNBL

ID Type Via Altitude Latitude Longitude Leg Dist Tot Dist Heading (true) Name
O MHRO APT - 0 ft / 0 m 16.31682˚ -86.52296˚ - 0 nm - Roatan
15N085W LATLON - 0 ft / 0 m 15.00000˚ -85.00000˚ 118 nm 118 nm 132° / 132° -
13N084W LATLON - 0 ft / 0 m 13.00000˚ -84.00000˚ 133 nm 251 nm 154° / 154° -
O MNBL APT - 0 ft / 0 m 11.99096˚ -83.77409˚ 62 nm 313 nm 168° / 168° BLUEFIELDS

Altitude Profile

Advertisement - Login to hide

Weather


0- 5 10 15 20 25 30 35+ Temperature / ° C

Clouds and Precipitation
Forecast for 2018-07-16 12:00 UTC. Updated 5 hours ago

Ground ~20,000 ft ~40,000 ft Winds

MHRO

Details ICAO MHRO (RTB)
Name Roatan
Region Honduras
Timezone Unknown (UTC+0.0)
Stats Elevation 18 ft / 5 m (AMSL)
Location 16.316816° -86.522961°
Runways 1
Magnetic Variation 1.490° W

METAR

MHRO 161400Z 08011KT 9999 FEW016 SCT200 29/26 Q1016 A3000 NOSIG

Decode

TAF

Not found

Departure Runways

ID Width Length Bearing (true) Bearing (mag) Surface Threshold Offset Overrun Length
07 148 ft / 45 m 7,353 ft / 2,241 m 65.06° 66.55° Asphalt 200 ft / 61 m 0 ft / 0 m
25 148 ft / 45 m 7,353 ft / 2,241 m 245.06° 246.55° Asphalt 0 ft / 0 m 0 ft / 0 m

MNBL

Details ICAO MNBL (BEF)
Name BLUEFIELDS
Region Nicaragua
Timezone America/Managua (UTC-6.0)
Stats Elevation 41 ft / 12 m (AMSL)
Location 11.990961° -83.774086°
Runways 1
Magnetic Variation 2.408° W

METAR

MNBL 161400Z 08008KT 9999 SCT019 BKN080 29/25 Q1013

Decode

TAF

Not found

Destination Runways

ID Width Length Bearing (true) Bearing (mag) Surface Threshold Offset Overrun Length
05 98 ft / 30 m 6,631 ft / 2,021 m 56.77° 59.18° Asphalt 0 ft / 0 m 0 ft / 0 m
23 98 ft / 30 m 6,631 ft / 2,021 m 236.78° 239.19° Asphalt 645 ft / 197 m 0 ft / 0 m

Popular Alternatives